TimePST,TemperatureF,Dew PointF,Humidity,Sea Level PressureIn,VisibilityMPH,Wind Direction,Wind SpeedMPH,Gust SpeedMPH,PrecipitationIn,Events,Conditions,WindDirDegrees,DateUTC
12:16 AM,42.8,39.2,87,30.18,10.0,South,6.9,-,N/A,,Overcast,180,2013-02-22 08:16:00
12:53 AM,43.0,39.0,86,30.17,10.0,South,9.2,-,N/A,,Overcast,180,2013-02-22 08:53:00
1:46 AM,42.8,39.2,87,30.17,10.0,SSE,8.1,-,N/A,,Overcast,150,2013-02-22 09:46:00
1:53 AM,43.0,39.0,86,30.18,10.0,SSE,8.1,-,N/A,,Overcast,160,2013-02-22 09:53:00
2:08 AM,42.8,39.2,87,30.17,10.0,SSE,6.9,-,N/A,,Overcast,150,2013-02-22 10:08:00
2:33 AM,42.8,39.2,87,30.17,10.0,Calm,Calm,-,N/A,,Overcast,0,2013-02-22 10:33:00
2:53 AM,43.0,39.9,89,30.17,10.0,SW,6.9,-,N/A,,Overcast,220,2013-02-22 10:53:00
3:53 AM,44.1,39.0,82,30.14,10.0,SSW,12.7,-,N/A,,Overcast,200,2013-02-22 11:53:00
4:17 AM,44.6,39.2,81,30.13,10.0,South,11.5,-,N/A,,Overcast,190,2013-02-22 12:17:00
4:53 AM,44.1,39.0,82,30.12,10.0,South,10.4,-,N/A,,Overcast,170,2013-02-22 12:53:00
5:53 AM,45.0,37.9,76,30.10,10.0,SSW,19.6,26.5,N/A,,Overcast,200,2013-02-22 13:53:00
6:53 AM,45.0,37.9,76,30.07,10.0,South,15.0,-,N/A,,Overcast,180,2013-02-22 14:53:00
7:53 AM,44.1,39.0,82,30.06,10.0,South,15.0,-,0.01,Rain,Light Rain,170,2013-02-22 15:53:00
9:53 AM,46.0,41.0,83,30.03,6.0,South,19.6,26.5,0.05,Rain,Rain,180,2013-02-22 17:53:00
10:46 AM,46.4,41.0,81,30.00,6.0,South,16.1,25.3,0.10,Rain,Light Rain,170,2013-02-22 18:46:00
10:53 AM,46.0,41.0,83,30.00,5.0,South,18.4,25.3,0.11,Rain,Rain,180,2013-02-22 18:53:00
11:53 AM,46.0,42.1,86,30.00,4.0,South,23.0,-,0.12,Rain,Rain,190,2013-02-22 19:53:00
12:53 PM,46.0,42.1,86,29.95,6.0,SSW,16.1,23.0,0.10,Rain,Rain,200,2013-02-22 20:53:00
1:53 PM,46.0,42.1,86,29.94,5.0,South,16.1,-,0.11,Rain,Rain,190,2013-02-22 21:53:00
2:53 PM,46.9,43.0,86,29.92,6.0,South,12.7,-,0.03,Rain,Light Rain,190,2013-02-22 22:53:00
3:09 PM,46.4,42.8,87,29.93,2.5,SSW,15.0,23.0,0.04,Rain,Rain,200,2013-02-22 23:09:00
3:22 PM,46.4,42.8,87,29.93,5.0,SSW,15.0,25.3,0.06,Rain,Light Rain,210,2013-02-22 23:22:00
3:46 PM,48.2,44.6,87,29.93,10.0,SW,11.5,-,0.06,,Overcast,220,2013-02-22 23:46:00
3:53 PM,48.0,44.1,86,29.94,10.0,SW,10.4,-,0.06,,Overcast,220,2013-02-22 23:53:00
4:53 PM,46.9,39.9,77,29.94,10.0,West,8.1,-,0.00,,Mostly Cloudy,260,2013-02-23 00:53:00
5:53 PM,45.0,37.9,76,29.95,10.0,WNW,10.4,-,0.00,Rain,Light Rain,300,2013-02-23 01:53:00
6:53 PM,44.1,37.0,76,29.98,9.0,West,11.5,-,0.01,Rain,Light Rain,270,2013-02-23 02:53:00
7:53 PM,42.1,36.0,79,30.00,10.0,WSW,6.9,-,0.00,,Mostly Cloudy,240,2013-02-23 03:53:00
8:53 PM,37.9,33.1,83,30.03,10.0,SSW,6.9,-,0.00,,Clear,200,2013-02-23 04:53:00
9:53 PM,39.9,34.0,79,30.05,10.0,SSW,6.9,-,0.01,,Clear,210,2013-02-23 05:53:00
10:53 PM,39.0,32.0,76,30.08,10.0,SW,4.6,-,N/A,,Partly Cloudy,230,2013-02-23 06:53:00
11:20 PM,39.2,33.8,81,30.09,10.0,North,8.1,-,0.00,,Overcast,360,2013-02-23 07:20:00
11:36 PM,39.2,33.8,81,30.09,10.0,SW,4.6,-,0.00,,Mostly Cloudy,220,2013-02-23 07:36:00
11:53 PM,39.9,34.0,79,30.10,10.0,WSW,11.5,-,0.00,Rain,Light Rain,240,2013-02-23 07:53:00